Ottumwa, IA

10:10 AM CDT on May 26, 2015 (GMT -0500)
Pella Municipal | | Change Station
CLOSE
Current Station
Airport
Location: Pella,
Elevation: 886 ft
Nearby Weather Stations

Elev 886 ft 41.40 °N, 92.94 °W | Updated 15 minutes ago

Overcast
Overcast
61 °F
Feels Like 61 °F
N
8
Wind Variable Wind from NW

Today
High -- | Low -- °F
--% Chance of Precip.
Yesterday
High -- | Low -- °F
Precip. -- in
5:43 AM 8:30 PM
First Quarter, 59% visible
Pressure 29.76 in
Visibility 10.0 miles
Clouds Scattered Clouds 800 ft
Mostly Cloudy 2200 ft
Dew Point 61 °F
Humidity 100%
Rainfall 1.13 in
Snow Depth Not available.
UV 3 out of 12
Pollen 6.80 out of 12
Air Quality Not available.
Flu Activity Sporadic
METAR KPEA 261455Z AUTO 32007KT 10SM SCT008 BKN022 16/16 A2976 RMK AO2 P0001 60019 T01630163

More Conditions Fewer Conditions

Pressure 29.76 in
Visibility 10.0 miles
Clouds Scattered Clouds 800 ft
Mostly Cloudy 2200 ft
Dew Point 61 °F
Humidity 100%
Rainfall 1.13 in
Snow Depth Not available.
UV 3 out of 12
Pollen 6.80 out of 12
Air Quality Not available.
Flu Activity Sporadic
METAR KPEA 261455Z AUTO 32007KT 10SM SCT008 BKN022 16/16 A2976 RMK AO2 P0001 60019 T01630163

More Conditions Fewer Conditions

10-Day Weather Forecast

Almanac

Astronomy

May. 26, 2015 Rise Set
Actual Time
Civil Twilight
Nautical Twilight
Astronomical Twilight
Moon
Length of Visible Light
Length of Day
Tomorrow will be .
, % of the Moon is Illuminated

Today's Extremes

State Highs State Lows

Community

WunderPhotos

Upload Photos

1,824,359 photos uploaded!

WunderBlogs® & News

Nearby

Air Quality

  Air Quality AQ Index Pollutant
Not available.

Snow Depth

Station Depth Elevation

Earthquake Activity

City Distance Mag. Time & Date
Minimum magnitude displayed is 2.5.

Coastal Water Temperatures

Place Temperature

Stations

Nearby Weather Stations

Station Location Temp. Windchill Dew Point Humidity Wind Precip. Elev Updated Type